Time;durP1;ratioP1;P1;durP2;ratioP2;P2;SDS_P1;SDS_P2;PMS_P1;PMS_P2;Temp;Humidity;BMP_temperature;BMP_pressure;BME280_temperature;BME280_humidity;BME280_pressure;Samples;Min_cycle;Max_cycle;Signal;HPM_P1;HPM_P2
2023/06/25 00:01:41;;;;;;;20.30;8.90;;;;;;;15.73;82.05;100797.20;110065;1264;22302;-60
2023/06/25 00:04:12;;;;;;;18.90;8.70;;;;;;;15.71;82.15;100797.45;110026;1264;23454;-59
2023/06/25 00:06:43;;;;;;;17.30;7.70;;;;;;;15.70;82.21;100799.38;110045;1264;22304;-60
2023/06/25 00:09:14;;;;;;;18.90;8.20;;;;;;;15.65;82.24;100798.88;110046;1273;22357;-60
2023/06/25 00:11:45;;;;;;;18.10;8.70;;;;;;;15.60;82.45;100797.57;110044;1264;22325;-60
2023/06/25 00:14:16;;;;;;;20.20;8.70;;;;;;;15.54;82.38;100798.40;110001;1264;22401;-60
2023/06/25 00:16:47;;;;;;;17.90;7.70;;;;;;;15.50;82.42;100795.70;110060;1273;22266;-60
2023/06/25 00:19:18;;;;;;;20.10;7.30;;;;;;;15.47;82.60;100795.58;110030;1271;22404;-60
2023/06/25 00:21:49;;;;;;;19.90;8.20;;;;;;;15.46;82.57;100796.80;110038;1264;23331;-59
2023/06/25 00:24:20;;;;;;;16.50;6.60;;;;;;;15.44;82.84;100797.53;110022;1267;22238;-59
2023/06/25 00:26:51;;;;;;;19.00;8.00;;;;;;;15.42;82.85;100794.60;109994;1264;22200;-60
2023/06/25 00:29:22;;;;;;;17.20;7.60;;;;;;;15.39;83.05;100798.13;110010;1271;22278;-60
2023/06/25 00:31:53;;;;;;;21.30;7.80;;;;;;;15.36;82.88;100795.02;110046;1279;22210;-60
2023/06/25 00:34:24;;;;;;;17.50;7.00;;;;;;;15.32;82.95;100795.13;110040;1268;22277;-60
2023/06/25 00:36:55;;;;;;;18.10;7.60;;;;;;;15.30;83.02;100793.66;110029;1273;22966;-59
2023/06/25 00:39:26;;;;;;;19.80;8.10;;;;;;;15.27;83.18;100793.38;110008;1264;22209;-60
2023/06/25 00:42:01;;;;;;;21.80;8.70;;;;;;;15.24;83.20;100790.34;110059;1267;22205;-60
2023/06/25 00:44:32;;;;;;;20.90;9.00;;;;;;;15.21;83.22;100789.14;110015;1273;22150;-60
2023/06/25 00:47:03;;;;;;;21.60;10.20;;;;;;;15.19;83.45;100786.15;110040;1271;22412;-60
2023/06/25 00:49:34;;;;;;;19.10;8.60;;;;;;;15.17;83.51;100788.45;109376;1276;22642;-60
2023/06/25 00:52:08;;;;;;;22.00;9.60;;;;;;;15.15;83.63;100784.89;106067;1274;22626;-59
2023/06/25 00:54:43;;;;;;;25.10;8.40;;;;;;;15.12;83.76;100780.88;110035;1273;22198;-60
2023/06/25 00:57:15;;;;;;;19.20;8.60;;;;;;;15.12;83.86;100784.14;110029;1267;22387;-61
2023/06/25 00:59:48;;;;;;;19.20;9.00;;;;;;;15.09;83.87;100783.30;109884;1264;22533;-59
2023/06/25 01:02:24;;;;;;;19.80;8.10;;;;;;;15.07;83.98;100779.95;110005;1271;22204;-60
2023/06/25 01:05:04;;;;;;;22.30;10.00;;;;;;;15.04;84.05;100783.86;110058;1275;22207;-60
2023/06/25 01:07:37;;;;;;;25.90;9.40;;;;;;;15.02;84.27;100787.93;110054;1267;22312;-60
2023/06/25 01:10:09;;;;;;;20.10;8.40;;;;;;;14.97;84.43;100782.42;110049;1274;22269;-60
2023/06/25 01:12:42;;;;;;;19.30;8.20;;;;;;;14.93;84.62;100784.73;110035;1267;22998;-60
2023/06/25 01:15:13;;;;;;;18.30;9.00;;;;;;;14.93;84.82;100779.73;110055;1267;22195;-60
2023/06/25 01:17:48;;;;;;;21.60;9.50;;;;;;;14.92;84.89;100776.60;110050;1264;22275;-60
2023/06/25 01:20:20;;;;;;;21.20;9.80;;;;;;;14.93;85.24;100773.38;110047;1264;22264;-60
2023/06/25 01:22:51;;;;;;;19.70;8.90;;;;;;;14.93;85.19;100768.22;110075;1275;22330;-60
2023/06/25 01:25:22;;;;;;;22.80;9.00;;;;;;;14.91;85.17;100771.52;110061;1267;22181;-59
2023/06/25 01:27:53;;;;;;;21.00;8.60;;;;;;;14.89;85.02;100766.80;110037;1279;22923;-60
2023/06/25 01:30:25;;;;;;;19.30;9.00;;;;;;;14.86;85.08;100763.59;110022;1273;22202;-59
2023/06/25 01:32:56;;;;;;;20.70;9.10;;;;;;;14.82;85.05;100766.98;110044;1272;22183;-60
2023/06/25 01:35:27;;;;;;;18.40;9.00;;;;;;;14.77;85.28;100767.30;110032;1267;22454;-60
2023/06/25 01:37:58;;;;;;;22.20;9.00;;;;;;;14.73;85.22;100764.55;110037;1272;22296;-63
2023/06/25 01:40:29;;;;;;;22.80;9.90;;;;;;;14.72;85.45;100765.29;110054;1264;23013;-60
2023/06/25 01:43:00;;;;;;;26.90;9.60;;;;;;;14.70;85.63;100757.70;110057;1271;22208;-60
2023/06/25 01:45:31;;;;;;;21.10;9.80;;;;;;;14.68;85.90;100754.11;110040;1264;22224;-60
2023/06/25 01:48:02;;;;;;;20.50;8.80;;;;;;;14.67;86.06;100756.09;110063;1274;22230;-60
2023/06/25 01:50:33;;;;;;;22.70;9.50;;;;;;;14.65;86.01;100756.64;110071;1267;22435;-60
2023/06/25 01:53:04;;;;;;;21.90;9.60;;;;;;;14.63;86.24;100756.25;110029;1268;22205;-60
2023/06/25 01:55:35;;;;;;;21.80;9.40;;;;;;;14.62;86.36;100755.84;110037;1264;22325;-60
2023/06/25 01:58:05;;;;;;;18.70;8.10;;;;;;;14.59;86.24;100755.95;110037;1264;22376;-60
2023/06/25 02:00:37;;;;;;;21.40;8.50;;;;;;;14.56;86.33;100757.98;110063;1274;22178;-62
2023/06/25 02:03:08;;;;;;;19.70;8.60;;;;;;;14.56;86.44;100753.73;110091;1273;22944;-61
2023/06/25 02:05:41;;;;;;;21.40;9.40;;;;;;;14.54;86.39;100751.11;110034;1264;22873;-61
2023/06/25 02:08:12;;;;;;;22.80;8.90;;;;;;;14.55;86.92;100750.76;110040;1273;22796;-62
2023/06/25 02:10:43;;;;;;;21.50;8.60;;;;;;;14.53;86.80;100751.30;110052;1264;22206;-62
2023/06/25 02:13:16;;;;;;;17.50;8.00;;;;;;;14.50;86.61;100747.90;110037;1271;23079;-62
2023/06/25 02:15:47;;;;;;;19.20;7.70;;;;;;;14.47;86.70;100750.66;110064;1271;22293;-62
2023/06/25 02:18:18;;;;;;;18.10;8.50;;;;;;;14.43;86.60;100754.52;110041;1271;22204;-62
2023/06/25 02:20:49;;;;;;;22.00;7.50;;;;;;;14.40;86.69;100751.30;110058;1271;22907;-62
2023/06/25 02:23:19;;;;;;;17.50;8.00;;;;;;;14.37;86.54;100748.52;110043;1272;22228;-62
2023/06/25 02:25:51;;;;;;;20.20;8.40;;;;;;;14.34;86.66;100746.94;110068;1264;22421;-62
2023/06/25 02:28:22;;;;;;;18.10;8.00;;;;;;;14.34;86.91;100746.88;109995;1271;22347;-62
2023/06/25 02:30:53;;;;;;;20.10;8.90;;;;;;;14.34;87.35;100751.54;110097;1279;22212;-63
2023/06/25 02:33:24;;;;;;;19.30;8.60;;;;;;;14.33;87.70;100747.90;110033;1276;22374;-62
2023/06/25 02:35:55;;;;;;;19.00;8.40;;;;;;;14.32;87.80;100748.30;110051;1267;22206;-63
2023/06/25 02:38:26;;;;;;;22.50;8.80;;;;;;;14.32;88.02;100746.36;110058;1267;22141;-62
2023/06/25 02:40:57;;;;;;;20.20;8.40;;;;;;;14.33;87.89;100747.80;110016;1273;23026;-62
2023/06/25 02:43:28;;;;;;;19.40;8.60;;;;;;;14.33;88.17;100749.48;110069;1264;23251;-62
2023/06/25 02:45:59;;;;;;;20.60;8.40;;;;;;;14.34;88.18;100752.09;110069;1271;22213;-63
2023/06/25 02:48:30;;;;;;;18.60;8.20;;;;;;;14.34;88.12;100750.63;110053;1264;22366;-62
2023/06/25 02:51:01;;;;;;;18.60;8.70;;;;;;;14.35;88.10;100751.46;110066;1274;22243;-62
2023/06/25 02:53:32;;;;;;;21.00;8.80;;;;;;;14.35;88.18;100750.73;110065;1264;22332;-62
2023/06/25 02:56:03;;;;;;;18.80;8.10;;;;;;;14.35;88.37;100751.62;110086;1267;22192;-63
2023/06/25 02:58:34;;;;;;;19.50;7.60;;;;;;;14.37;88.35;100748.82;110047;1264;22223;-63
2023/06/25 03:01:05;;;;;;;19.70;8.50;;;;;;;14.37;88.31;100748.41;110049;1267;22350;-62
2023/06/25 03:03:35;;;;;;;19.30;7.90;;;;;;;14.35;88.52;100749.45;110051;1279;22413;-62
2023/06/25 03:06:07;;;;;;;19.10;7.90;;;;;;;14.36;88.65;100750.39;110068;1267;22393;-62
2023/06/25 03:08:38;;;;;;;21.10;9.10;;;;;;;14.37;88.79;100752.80;110066;1274;22388;-62
2023/06/25 03:11:10;;;;;;;20.50;8.50;;;;;;;14.40;89.07;100750.95;110027;1264;22897;-62
2023/06/25 03:13:41;;;;;;;24.00;8.50;;;;;;;14.42;89.12;100745.90;110064;1273;22271;-62
2023/06/25 03:16:12;;;;;;;17.00;7.90;;;;;;;14.44;89.38;100748.84;110081;1273;22367;-62
2023/06/25 03:18:43;;;;;;;20.70;9.90;;;;;;;14.46;89.38;100745.39;110082;1272;22244;-62
2023/06/25 03:21:14;;;;;;;20.90;8.90;;;;;;;14.49;89.46;100749.16;110047;1271;22290;-63
2023/06/25 03:23:45;;;;;;;22.70;8.70;;;;;;;14.50;89.50;100745.55;110074;1267;22188;-62
2023/06/25 03:26:15;;;;;;;21.30;9.50;;;;;;;14.52;89.59;100748.02;110022;1272;22187;-62
2023/06/25 03:28:46;;;;;;;23.60;9.30;;;;;;;14.53;89.69;100746.50;110030;1267;22243;-62
2023/06/25 03:31:17;;;;;;;18.20;8.90;;;;;;;14.55;89.73;100743.36;110053;1271;22295;-62
2023/06/25 03:33:48;;;;;;;19.20;8.80;;;;;;;14.57;89.88;100737.91;110088;1276;22182;-62
2023/06/25 03:36:19;;;;;;;23.60;10.20;;;;;;;14.60;89.92;100737.17;110046;1273;22422;-62
2023/06/25 03:38:50;;;;;;;21.30;9.00;;;;;;;14.62;89.83;100734.84;110070;1271;22194;-62
2023/06/25 03:41:21;;;;;;;27.00;8.50;;;;;;;14.62;90.01;100736.90;110067;1273;22214;-62
2023/06/25 03:43:52;;;;;;;22.20;9.70;;;;;;;14.62;90.01;100736.58;110065;1274;22952;-62
2023/06/25 03:46:23;;;;;;;19.00;9.20;;;;;;;14.62;90.22;100740.30;110025;1264;22193;-62
2023/06/25 03:48:53;;;;;;;20.20;9.30;;;;;;;14.62;90.36;100738.30;110097;1279;22324;-62
2023/06/25 03:51:24;;;;;;;22.60;9.10;;;;;;;14.63;90.41;100740.52;110077;1273;22286;-62
2023/06/25 03:53:57;;;;;;;19.50;9.10;;;;;;;14.67;90.46;100739.64;110023;1275;22187;-63
2023/06/25 03:56:29;;;;;;;24.40;9.40;;;;;;;14.71;90.37;100735.34;110084;1264;22280;-62
2023/06/25 03:59:00;;;;;;;24.80;9.60;;;;;;;14.74;90.50;100733.98;110071;1273;22300;-63
2023/06/25 04:01:31;;;;;;;20.10;10.00;;;;;;;14.77;90.64;100736.84;110069;1274;22326;-63
2023/06/25 04:04:01;;;;;;;18.70;8.80;;;;;;;14.81;90.75;100738.35;110082;1264;22201;-63
2023/06/25 04:06:32;;;;;;;18.70;9.00;;;;;;;14.85;90.66;100738.45;110066;1273;22184;-62
2023/06/25 04:09:04;;;;;;;20.10;9.60;;;;;;;14.91;90.80;100740.34;110082;1273;22991;-62
2023/06/25 04:11:35;;;;;;;19.20;8.50;;;;;;;14.97;90.85;100738.23;110041;1270;22328;-62
2023/06/25 04:14:06;;;;;;;21.70;9.00;;;;;;;15.04;90.93;100735.91;110084;1273;23311;-63
2023/06/25 04:16:37;;;;;;;20.20;8.20;;;;;;;15.10;90.67;100731.67;110071;1274;22221;-62
2023/06/25 04:19:08;;;;;;;18.60;8.60;;;;;;;15.17;90.71;100734.69;110040;1264;22945;-63
2023/06/25 04:21:39;;;;;;;17.80;7.90;;;;;;;15.23;90.90;100729.73;110073;1279;22433;-62
2023/06/25 04:24:10;;;;;;;21.00;8.10;;;;;;;15.28;90.90;100730.59;110060;1276;22812;-62
2023/06/25 04:26:41;;;;;;;17.00;7.80;;;;;;;15.33;91.02;100732.88;110048;1273;23030;-64
2023/06/25 04:29:12;;;;;;;18.40;7.90;;;;;;;15.37;90.97;100732.55;110099;1267;22215;-62
2023/06/25 04:31:43;;;;;;;16.10;6.80;;;;;;;15.41;91.02;100739.33;110056;1263;22409;-62
2023/06/25 04:34:14;;;;;;;18.90;8.00;;;;;;;15.47;91.09;100737.96;110076;1264;22259;-63
2023/06/25 04:36:45;;;;;;;19.80;7.60;;;;;;;15.52;91.17;100740.05;110095;1276;22228;-62
2023/06/25 04:39:16;;;;;;;19.00;7.40;;;;;;;15.58;91.24;100739.88;110076;1273;22214;-63
2023/06/25 04:41:47;;;;;;;15.80;7.60;;;;;;;15.65;91.52;100741.58;110024;1267;22355;-63
2023/06/25 04:44:17;;;;;;;19.40;7.40;;;;;;;15.72;91.60;100740.29;110060;1264;22153;-62
2023/06/25 04:46:48;;;;;;;18.70;7.70;;;;;;;15.80;91.53;100742.78;110066;1271;23105;-62
2023/06/25 04:49:19;;;;;;;21.90;8.20;;;;;;;15.88;90.96;100743.81;110063;1271;22227;-62
2023/06/25 04:51:51;;;;;;;19.40;7.70;;;;;;;15.96;90.67;100744.45;110080;1277;22793;-63
2023/06/25 04:54:21;;;;;;;17.30;6.80;;;;;;;16.05;90.48;100738.41;110064;1274;22212;-63
2023/06/25 04:56:52;;;;;;;21.20;7.30;;;;;;;16.13;90.16;100733.58;110082;1274;22218;-64
2023/06/25 04:59:23;;;;;;;16.40;7.10;;;;;;;16.21;90.42;100732.33;109508;1274;22549;-62
2023/06/25 05:01:54;;;;;;;18.20;7.30;;;;;;;16.31;89.77;100729.86;105962;1274;24384;-61
2023/06/25 05:04:25;;;;;;;18.30;7.80;;;;;;;16.39;89.35;100727.07;110063;1271;22219;-62
2023/06/25 05:06:56;;;;;;;17.20;6.70;;;;;;;16.46;88.73;100734.52;110121;1277;22198;-62
2023/06/25 05:09:27;;;;;;;16.70;6.60;;;;;;;16.52;88.68;100736.15;110063;1276;22939;-63
2023/06/25 05:11:58;;;;;;;14.80;5.40;;;;;;;16.59;88.28;100736.95;110083;1258;22206;-62
2023/06/25 05:14:31;;;;;;;16.70;6.60;;;;;;;16.69;88.42;100738.14;110049;1268;22329;-62
2023/06/25 05:17:02;;;;;;;15.40;4.80;;;;;;;16.79;87.29;100740.58;110075;1270;22156;-63
2023/06/25 05:19:32;;;;;;;15.50;5.60;;;;;;;16.87;86.44;100739.77;110061;1264;22349;-62
2023/06/25 05:22:04;;;;;;;15.60;5.60;;;;;;;16.95;86.55;100741.17;110040;1273;23702;-63
2023/06/25 05:24:36;;;;;;;13.90;5.40;;;;;;;17.04;86.07;100736.19;110052;1267;22212;-63
2023/06/25 05:27:08;;;;;;;18.10;5.70;;;;;;;17.12;85.58;100736.91;110070;1268;22929;-62
2023/06/25 05:29:39;;;;;;;12.70;4.70;;;;;;;17.19;85.47;100732.50;110041;1264;22810;-63
2023/06/25 05:32:12;;;;;;;13.40;5.10;;;;;;;17.26;84.67;100733.11;110044;1274;22334;-62
2023/06/25 05:34:43;;;;;;;13.60;4.70;;;;;;;17.31;83.98;100737.63;110073;1267;23069;-62
2023/06/25 05:37:13;;;;;;;11.80;4.60;;;;;;;17.38;83.59;100740.56;110052;1271;22405;-64
2023/06/25 05:39:44;;;;;;;15.30;4.10;;;;;;;17.45;83.74;100739.11;110075;1267;22205;-62
2023/06/25 05:42:15;;;;;;;16.70;5.70;;;;;;;17.53;83.31;100742.21;110076;1267;22190;-63
2023/06/25 05:44:46;;;;;;;15.20;5.60;;;;;;;17.60;83.47;100740.45;110080;1271;22182;-64
2023/06/25 05:47:17;;;;;;;14.80;4.70;;;;;;;17.69;83.09;100741.46;110049;1274;22365;-62
2023/06/25 05:49:48;;;;;;;12.50;4.10;;;;;;;17.78;82.88;100745.70;110070;1270;22249;-63
2023/06/25 05:52:19;;;;;;;15.20;4.80;;;;;;;17.90;82.16;100741.27;110071;1263;22198;-63
2023/06/25 05:54:50;;;;;;;13.30;4.90;;;;;;;17.97;81.96;100741.59;110058;1279;23270;-63
2023/06/25 05:57:21;;;;;;;14.10;4.00;;;;;;;18.04;82.14;100745.42;110039;1264;22250;-63
2023/06/25 05:59:52;;;;;;;11.10;4.20;;;;;;;18.14;81.32;100744.67;110096;1265;22231;-63
2023/06/25 06:02:23;;;;;;;13.20;4.20;;;;;;;18.22;80.74;100745.31;110058;1273;22190;-62
2023/06/25 06:04:54;;;;;;;14.60;4.50;;;;;;;18.28;80.43;100743.44;110042;1274;22242;-62
2023/06/25 06:07:25;;;;;;;12.20;4.00;;;;;;;18.36;80.23;100738.81;110075;1274;22767;-62
2023/06/25 06:09:56;;;;;;;14.90;4.00;;;;;;;18.43;80.52;100737.10;110045;1271;22341;-62
2023/06/25 06:12:27;;;;;;;11.80;4.10;;;;;;;18.60;80.74;100735.48;110066;1274;22178;-62
2023/06/25 06:14:57;;;;;;;14.00;3.90;;;;;;;18.72;79.50;100736.34;110054;1265;22331;-62
2023/06/25 06:17:28;;;;;;;17.00;4.50;;;;;;;18.80;79.88;100739.13;110050;1264;22392;-62
2023/06/25 06:19:59;;;;;;;16.40;3.50;;;;;;;18.92;78.88;100745.46;110057;1273;22219;-62
2023/06/25 06:22:30;;;;;;;12.60;3.60;;;;;;;18.96;78.46;100752.32;110039;1267;22313;-62
2023/06/25 06:25:01;;;;;;;14.60;3.80;;;;;;;19.05;78.71;100753.59;110028;1271;22168;-62
2023/06/25 06:27:32;;;;;;;14.80;3.90;;;;;;;19.16;78.55;100752.45;110031;1272;22334;-63
2023/06/25 06:30:03;;;;;;;11.70;3.80;;;;;;;19.28;78.13;100750.95;109834;1276;22521;-62
2023/06/25 06:32:34;;;;;;;15.10;4.20;;;;;;;19.37;78.05;100751.02;110059;1274;22328;-62
2023/06/25 06:35:05;;;;;;;15.20;3.60;;;;;;;19.47;78.29;100752.50;110055;1273;22175;-62
2023/06/25 06:37:51;;;;;;;11.90;3.40;;;;;;;19.66;77.88;100754.25;110016;1265;22773;-63
2023/06/25 06:40:49;;;;;;;8.70;2.90;;;;;;;19.73;76.07;100749.93;109896;1265;22370;-62
2023/06/25 06:43:26;;;;;;;9.30;2.90;;;;;;;19.74;74.53;100752.55;109865;1264;22339;-62
2023/06/25 06:45:57;;;;;;;12.00;3.60;;;;;;;19.76;74.32;100755.34;110029;1274;22224;-62
2023/06/25 06:48:28;;;;;;;12.00;3.10;;;;;;;19.78;74.08;100749.48;110061;1276;22184;-62
2023/06/25 06:50:59;;;;;;;10.20;3.00;;;;;;;19.82;73.97;100751.91;110054;1264;22892;-62
2023/06/25 06:53:30;;;;;;;14.20;3.20;;;;;;;19.89;73.66;100747.20;110037;1276;22276;-62
2023/06/25 06:56:01;;;;;;;14.30;2.80;;;;;;;19.95;72.92;100741.77;110047;1275;23066;-62
2023/06/25 06:58:32;;;;;;;8.80;3.00;;;;;;;20.00;72.98;100735.74;110065;1271;22209;-62
2023/06/25 07:01:03;;;;;;;7.80;2.40;;;;;;;20.06;71.40;100737.81;110075;1271;22332;-62
2023/06/25 07:03:33;;;;;;;7.70;1.90;;;;;;;20.09;71.14;100734.14;110040;1277;22616;-62
2023/06/25 07:06:04;;;;;;;6.30;1.80;;;;;;;20.15;69.23;100738.48;110023;1273;22871;-62
2023/06/25 07:08:35;;;;;;;7.90;1.60;;;;;;;20.24;68.59;100733.27;110041;1267;22960;-62
2023/06/25 07:11:07;;;;;;;6.50;1.90;;;;;;;20.29;68.63;100734.33;110045;1274;22360;-62
2023/06/25 07:13:39;;;;;;;8.50;2.10;;;;;;;20.40;69.72;100734.70;109982;1264;22293;-63
2023/06/25 07:16:10;;;;;;;6.10;1.80;;;;;;;20.52;68.91;100739.91;110018;1264;22329;-62
2023/06/25 07:18:42;;;;;;;7.20;1.90;;;;;;;20.59;68.54;100737.90;110039;1276;22211;-62
2023/06/25 07:21:13;;;;;;;8.40;2.20;;;;;;;20.64;68.37;100737.73;110031;1276;22367;-62
2023/06/25 07:23:44;;;;;;;8.40;2.00;;;;;;;20.65;66.53;100738.33;110055;1272;22245;-62
2023/06/25 07:26:16;;;;;;;9.10;2.20;;;;;;;20.65;66.73;100739.91;110001;1267;24079;-62
2023/06/25 07:28:46;;;;;;;9.60;2.40;;;;;;;20.68;65.99;100741.07;110050;1271;22203;-62
2023/06/25 07:31:17;;;;;;;6.90;1.90;;;;;;;20.68;65.47;100736.12;110024;1265;22397;-62
2023/06/25 07:33:49;;;;;;;10.10;2.30;;;;;;;20.69;64.89;100737.96;110044;1271;22394;-62
2023/06/25 07:36:20;;;;;;;9.70;1.90;;;;;;;20.70;65.19;100733.48;110021;1264;22690;-62
2023/06/25 07:38:51;;;;;;;7.50;2.00;;;;;;;20.77;65.11;100734.08;109988;1276;22214;-62
2023/06/25 07:41:22;;;;;;;7.30;2.50;;;;;;;20.83;65.23;100728.20;110018;1267;23065;-63
2023/06/25 07:43:55;;;;;;;8.50;2.40;;;;;;;20.90;65.08;100726.52;110008;1274;22343;-62
2023/06/25 07:46:26;;;;;;;12.10;2.80;;;;;;;20.91;64.97;100724.06;110013;1271;22232;-62
2023/06/25 07:48:56;;;;;;;7.50;1.80;;;;;;;20.96;64.76;100726.51;110072;1279;22186;-62
2023/06/25 07:51:27;;;;;;;8.00;2.60;;;;;;;21.01;64.48;100727.11;110016;1267;22576;-62
2023/06/25 07:53:58;;;;;;;9.50;2.40;;;;;;;21.03;63.82;100725.41;110046;1271;22612;-62
2023/06/25 07:56:29;;;;;;;10.00;2.40;;;;;;;21.06;63.65;100724.89;110013;1271;22136;-61
2023/06/25 07:59:00;;;;;;;6.80;2.20;;;;;;;21.08;63.63;100725.32;110040;1268;23370;-61
2023/06/25 08:01:31;;;;;;;7.90;2.30;;;;;;;21.10;63.73;100722.55;110008;1273;22339;-61
2023/06/25 08:04:01;;;;;;;9.60;2.70;;;;;;;21.15;64.04;100722.15;110058;1271;22205;-60
2023/06/25 08:06:32;;;;;;;11.70;2.50;;;;;;;21.23;63.53;100724.20;110040;1273;22256;-61
2023/06/25 08:09:04;;;;;;;8.00;2.80;;;;;;;21.27;62.89;100722.89;110032;1267;22921;-61
2023/06/25 08:11:34;;;;;;;8.20;2.50;;;;;;;21.31;62.86;100719.36;110014;1273;22223;-61
2023/06/25 08:14:06;;;;;;;7.60;2.70;;;;;;;21.36;63.04;100716.23;110007;1271;22347;-61
2023/06/25 08:16:37;;;;;;;10.50;2.40;;;;;;;21.45;64.00;100716.41;110012;1267;22192;-60
2023/06/25 08:19:07;;;;;;;10.50;2.60;;;;;;;21.57;63.92;100716.38;110094;1271;23089;-60
2023/06/25 08:21:39;;;;;;;10.90;2.70;;;;;;;21.65;63.14;100721.73;110045;1264;22207;-61
2023/06/25 08:24:10;;;;;;;9.60;2.30;;;;;;;21.68;62.01;100722.19;110077;1277;22137;-61
2023/06/25 08:26:41;;;;;;;9.90;2.60;;;;;;;21.69;62.20;100716.23;110097;1273;22256;-61
2023/06/25 08:29:12;;;;;;;7.30;2.20;;;;;;;21.72;61.83;100716.64;110077;1273;22222;-61
2023/06/25 08:31:43;;;;;;;8.20;2.70;;;;;;;21.76;62.25;100717.36;110077;1275;22170;-61
2023/06/25 08:34:14;;;;;;;9.00;2.20;;;;;;;21.83;62.11;100712.90;110071;1271;22889;-61
2023/06/25 08:36:45;;;;;;;11.40;2.20;;;;;;;21.89;61.40;100713.77;110079;1277;22252;-60
2023/06/25 08:39:16;;;;;;;7.70;2.20;;;;;;;21.90;60.50;100712.51;110072;1273;22700;-61
2023/06/25 08:41:47;;;;;;;8.60;2.10;;;;;;;21.96;60.70;100708.05;110107;1273;22198;-61
2023/06/25 08:44:18;;;;;;;7.40;1.60;;;;;;;22.03;59.91;100704.34;110047;1273;22194;-63
2023/06/25 08:46:50;;;;;;;8.00;1.80;;;;;;;22.08;59.34;100705.02;110057;1271;22336;-61
2023/06/25 08:49:23;;;;;;;5.70;1.60;;;;;;;22.15;58.89;100703.27;110051;1272;22960;-61
2023/06/25 08:51:57;;;;;;;7.60;1.60;;;;;;;22.27;57.59;100703.16;110044;1267;22285;-61
2023/06/25 08:54:28;;;;;;;5.90;1.50;;;;;;;22.30;56.33;100703.09;110030;1279;22222;-61
2023/06/25 08:57:01;;;;;;;5.40;1.30;;;;;;;22.33;56.49;100702.05;110011;1273;22203;-61
2023/06/25 08:59:32;;;;;;;5.80;1.90;;;;;;;22.42;56.69;100697.80;110063;1267;22801;-61
2023/06/25 09:02:03;;;;;;;5.20;1.50;;;;;;;22.59;56.44;100694.55;110094;1273;22200;-61
2023/06/25 09:04:34;;;;;;;7.90;1.60;;;;;;;22.81;56.26;100700.47;110082;1264;22527;-61
2023/06/25 09:07:09;;;;;;;5.50;1.20;;;;;;;22.92;55.22;100701.61;110055;1265;22422;-61
2023/06/25 09:09:40;;;;;;;6.00;1.60;;;;;;;22.95;54.35;100701.98;110075;1277;23378;-61
2023/06/25 09:12:12;;;;;;;7.60;1.60;;;;;;;22.98;54.20;100699.95;110093;1267;22188;-61
2023/06/25 09:14:43;;;;;;;6.60;1.60;;;;;;;22.95;53.05;100702.04;110069;1276;23000;-60
2023/06/25 09:17:20;;;;;;;7.90;1.60;;;;;;;22.90;52.60;100703.41;110081;1276;22286;-60
2023/06/25 09:19:51;;;;;;;5.90;1.40;;;;;;;22.89;51.95;100705.56;110045;1268;22342;-61
2023/06/25 09:22:22;;;;;;;4.90;1.10;;;;;;;22.90;52.23;100697.41;110041;1276;22400;-60
2023/06/25 09:24:53;;;;;;;5.30;1.40;;;;;;;22.94;52.43;100696.61;110015;1268;22176;-60
2023/06/25 09:27:24;;;;;;;6.60;1.40;;;;;;;23.00;51.94;100698.46;110012;1267;22148;-60
2023/06/25 09:29:57;;;;;;;5.20;1.30;;;;;;;23.01;51.94;100696.61;110069;1267;22185;-61
2023/06/25 09:32:28;;;;;;;5.60;1.40;;;;;;;23.04;51.30;100698.96;110065;1274;22177;-60
2023/06/25 09:35:03;;;;;;;4.30;1.10;;;;;;;23.05;51.48;100697.08;110072;1276;22138;-61
2023/06/25 09:37:40;;;;;;;4.80;1.40;;;;;;;23.12;50.68;100701.83;110027;1273;22335;-60
2023/06/25 09:40:12;;;;;;;5.60;1.50;;;;;;;23.11;50.48;100697.19;110058;1264;22342;-60
2023/06/25 09:42:45;;;;;;;4.80;1.20;;;;;;;23.12;50.06;100696.86;110070;1276;22201;-60
2023/06/25 09:45:17;;;;;;;5.70;1.60;;;;;;;23.16;49.31;100699.30;110013;1271;22218;-61
2023/06/25 09:47:49;;;;;;;4.70;1.40;;;;;;;23.20;49.93;100699.91;110045;1273;22390;-61
2023/06/25 09:50:25;;;;;;;7.50;1.40;;;;;;;23.24;48.73;100700.89;109995;1276;22166;-61
2023/06/25 09:52:57;;;;;;;6.00;1.40;;;;;;;23.20;47.98;100699.17;110033;1267;22213;-61
2023/06/25 09:55:30;;;;;;;4.30;1.30;;;;;;;23.20;48.50;100695.98;110051;1267;22450;-61
2023/06/25 09:58:01;;;;;;;6.70;1.50;;;;;;;23.19;48.51;100699.21;110053;1265;22151;-61
2023/06/25 10:00:33;;;;;;;4.30;1.40;;;;;;;23.22;49.12;100693.80;110045;1276;24157;-61
2023/06/25 10:03:05;;;;;;;4.70;1.20;;;;;;;23.26;48.88;100693.80;110041;1276;22217;-60
2023/06/25 10:05:38;;;;;;;6.00;1.50;;;;;;;23.26;48.82;100690.98;110049;1272;22386;-60
2023/06/25 10:08:09;;;;;;;5.50;1.50;;;;;;;23.26;48.93;100689.65;110064;1276;22971;-60
2023/06/25 10:10:41;;;;;;;5.30;1.30;;;;;;;23.23;48.44;100686.59;110048;1276;22183;-60
2023/06/25 10:13:14;;;;;;;6.70;1.30;;;;;;;23.18;48.61;100685.03;110038;1274;22401;-60
2023/06/25 10:15:57;;;;;;;5.60;1.20;;;;;;;23.20;49.46;100679.81;110045;1277;22385;-60
2023/06/25 10:18:28;;;;;;;5.90;1.20;;;;;;;23.28;49.16;100680.29;110018;1267;22364;-60
2023/06/25 10:21:01;;;;;;;5.40;1.30;;;;;;;23.29;49.12;100674.60;110047;1275;22208;-60
2023/06/25 10:23:37;;;;;;;5.10;1.30;;;;;;;23.37;49.76;100673.13;110063;1274;22429;-60
2023/06/25 10:26:08;;;;;;;6.00;1.30;;;;;;;23.47;49.13;100668.27;110066;1267;22844;-61
2023/06/25 10:28:38;;;;;;;6.20;1.50;;;;;;;23.46;48.55;100665.64;110004;1267;22390;-60
2023/06/25 10:31:17;;;;;;;5.30;1.30;;;;;;;23.46;48.98;100662.90;110046;1271;22170;-60
2023/06/25 10:33:48;;;;;;;5.20;1.40;;;;;;;23.49;48.74;100665.70;110026;1279;22205;-61
2023/06/25 10:36:26;;;;;;;6.10;1.30;;;;;;;23.50;48.91;100664.19;110033;1269;22558;-60
2023/06/25 10:38:58;;;;;;;4.20;1.20;;;;;;;23.54;48.89;100665.58;109923;1274;22256;-61
2023/06/25 10:41:31;;;;;;;5.30;1.30;;;;;;;23.58;48.41;100664.14;110017;1268;23326;-60
2023/06/25 10:44:02;;;;;;;8.00;1.90;;;;;;;23.54;47.81;100663.67;110017;1276;22196;-60
2023/06/25 10:46:33;;;;;;;4.30;1.50;;;;;;;23.48;48.22;100662.98;110009;1276;22358;-60
2023/06/25 10:49:05;;;;;;;6.00;1.50;;;;;;;23.46;48.16;100664.31;110043;1273;22329;-60
2023/06/25 10:51:36;;;;;;;9.30;1.50;;;;;;;23.43;47.63;100658.17;110021;1271;22444;-59
2023/06/25 10:54:08;;;;;;;7.80;2.00;;;;;;;23.38;48.11;100656.59;110051;1274;22211;-60
2023/06/25 10:56:39;;;;;;;3.90;1.20;;;;;;;23.43;48.58;100654.03;110052;1273;22158;-61
2023/06/25 10:59:10;;;;;;;5.70;1.60;;;;;;;23.47;47.83;100659.08;110057;1276;22791;-60
2023/06/25 11:01:41;;;;;;;10.50;1.50;;;;;;;23.41;47.46;100651.63;109996;1272;22918;-60
2023/06/25 11:04:20;;;;;;;7.00;1.80;;;;;;;23.39;47.47;100652.27;110014;1273;22201;-60
2023/06/25 11:06:54;;;;;;;7.50;1.90;;;;;;;23.39;47.93;100645.39;110013;1276;22864;-60
2023/06/25 11:09:26;;;;;;;5.00;1.50;;;;;;;23.44;48.38;100644.32;110014;1273;22377;-60
2023/06/25 11:11:58;;;;;;;6.60;1.20;;;;;;;23.53;48.02;100641.52;110052;1268;22304;-60
2023/06/25 11:14:29;;;;;;;5.30;1.30;;;;;;;23.58;47.47;100641.48;110008;1264;22184;-60
2023/06/25 11:17:01;;;;;;;5.40;1.20;;;;;;;23.55;47.66;100641.04;105924;1268;5394603;-61
2023/06/25 11:19:33;;;;;;;6.50;1.80;;;;;;;23.55;47.63;100629.94;110009;1276;22353;-60
2023/06/25 11:22:10;;;;;;;5.40;1.20;;;;;;;23.62;48.45;100631.17;110003;1271;22451;-60
2023/06/25 11:24:44;;;;;;;5.30;1.50;;;;;;;23.68;47.69;100634.94;107718;1270;24224;-59
2023/06/25 11:27:26;;;;;;;8.80;1.60;;;;;;;23.65;48.00;100627.92;109950;1279;22245;-61
2023/06/25 11:29:57;;;;;;;6.00;1.10;;;;;;;23.66;47.52;100628.60;109928;1277;22956;-60
2023/06/25 11:32:29;;;;;;;6.00;1.40;;;;;;;23.65;47.82;100622.41;109942;1273;22179;-63